Kinross, Michigan
Current Conditions -  °F | °C
As of 8:55 AM on Wednesday 26 Nov 2014 (Local Time) from KCIU Reporting Station
Overcast Overcast  
Wind Chill: 19°   Ceiling: 3400
Heat Index: 19°   Visibility: 10mi
Dew Point: 19°   Wind: 3mph
Humidity: 100%   Direction: 160°SSE
Pressure: 30.18"   Gusts: NA
Location:  46.27°N, 84.51°W
Report Text: KCIU 261355Z AUTO 16003KT 10SM OVC034 M07/M07 A3018 RMK AO1
Loading
Personal Weather Stations






























Interactive Weather Map New forecast layout! Learn more

10-Day Weather Forecast

Advertisements
Track Severe Weather on mobile